Date,TemperatureHighF,TemperatureAvgF,TemperatureLowF,DewpointHighF,DewpointAvgF,DewpointLowF,HumidityHigh,HumidityAvg,HumidityLow,PressureMaxIn,PressureMinIn,WindSpeedMaxMPH,WindSpeedAvgMPH,GustSpeedMaxMPH,PrecipitationSumIn
2012-8-18,67.7,62.3,56.1,52.3,47.5,43.5,71,59,42,29.35,29.31,1,0,3,0.00
2012-8-19,69.4,58.4,50.8,50.7,46.5,40.5,88,67,37,29.41,29.33,2,0,4,0.00
2012-8-20,64.6,56.5,50.0,51.4,47.8,43.5,90,74,50,29.57,29.41,1,0,4,0.00
2012-8-21,58.2,51.3,45.0,48.2,45.4,42.9,98,81,60,29.76,29.58,1,0,3,0.00
2012-8-22,68.2,52.7,39.3,47.3,43.1,38.5,98,74,38,29.73,29.38,2,0,3,0.00
2012-8-23,70.2,59.2,50.8,49.4,45.5,41.6,80,63,36,29.42,29.28,2,1,3,0.00
2012-8-24,61.3,52.2,44.1,52.6,47.2,42.8,96,84,63,29.51,29.39,1,0,2,0.02
2012-8-25,58.0,51.0,47.2,51.5,48.8,46.1,99,92,75,29.62,29.48,2,0,3,0.23
2012-8-26,53.0,50.3,47.7,52.2,49.5,46.9,100,97,96,29.63,29.23,0,0,1,0.55
2012-8-27,53.0,49.4,43.7,50.0,46.5,40.7,99,90,71,29.62,29.23,3,1,6,0.11
2012-8-28,53.9,44.4,36.5,45.0,40.3,35.7,99,87,61,29.80,29.63,1,0,1,0.01
2012-8-29,56.8,48.8,40.1,50.0,43.4,39.0,96,82,59,29.78,29.47,1,0,2,0.00
2012-8-30,70.4,57.7,49.1,56.2,49.1,44.1,88,74,50,29.47,29.23,1,0,2,0.00
2012-8-31,58.0,52.9,49.6,52.4,49.4,45.7,98,88,64,29.43,29.28,1,0,2,0.17
2012-9-1,51.6,50.0,46.4,50.3,48.0,44.8,98,93,84,29.31,29.16,1,0,2,0.14
2012-9-2,60.6,50.9,44.9,51.8,47.5,43.9,99,89,63,29.36,29.22,1,0,4,0.01
2012-9-3,59.7,52.4,45.8,52.5,46.6,41.8,94,81,62,29.23,29.11,1,0,1,0.04
2012-9-4,61.9,52.3,46.8,49.8,46.4,42.2,98,82,49,29.46,29.17,2,0,3,0.03
2012-9-5,60.5,51.9,45.3,48.3,43.4,39.1,92,74,50,29.29,29.11,2,0,4,0.03
2012-9-6,48.2,44.9,39.9,44.8,42.2,38.1,97,91,74,29.72,29.32,2,0,5,0.17
2012-9-7,48.8,42.1,36.6,41.7,38.4,35.1,98,87,59,29.74,29.57,1,0,1,0.00
2012-9-8,49.2,39.8,31.1,44.4,37.7,30.3,99,92,80,29.58,29.51,1,0,1,0.04
2012-9-9,46.2,40.1,34.6,42.8,37.8,32.5,96,91,81,29.60,29.51,1,0,2,0.03
2012-9-10,41.8,34.6,31.0,32.8,31.0,28.9,93,87,63,29.67,29.60,1,0,2,0.00
2012-9-12,53.7,43.6,29.8,39.2,32.6,27.2,95,68,40,29.43,29.35,1,0,2,0.00
2012-9-13,38.8,34.4,30.0,32.8,30.4,27.8,92,85,78,29.52,29.44,0,0,1,0.00
2012-9-15,57.8,53.5,48.5,44.4,41.0,38.7,75,63,50,29.45,29.29,1,0,2,0.00
2012-9-16,51.7,49.7,48.1,40.8,40.0,38.7,74,69,65,29.29,29.12,1,0,1,0.00
2012-10-6,42.7,41.0,39.1,41.3,40.1,38.3,98,97,94,29.94,29.71,1,0,1,0.16
2012-10-7,44.1,39.9,36.8,42.0,39.0,36.3,99,97,86,29.96,29.86,0,0,2,0.08
2012-10-8,39.5,38.1,36.0,39.0,37.6,35.5,98,98,98,29.86,29.79,1,0,1,0.28
2012-10-16,21.1,19.2,17.6,18.5,17.1,15.7,93,92,88,29.38,29.07,0,0,0,0.00
2012-10-17,21.4,18.9,16.2,17.7,16.3,14.0,93,90,83,29.58,29.38,0,0,0,0.00
2012-10-18,23.2,17.9,11.9,19.0,15.5,9.8,93,90,82,29.76,29.58,0,0,0,0.00
2012-10-19,21.0,15.8,12.6,18.3,13.7,10.5,94,92,88,30.04,29.76,1,0,1,0.00
2012-10-20,22.0,18.8,15.1,18.7,16.5,13.2,95,91,86,30.27,30.04,0,0,1,0.00
2012-10-21,24.5,14.9,7.4,18.3,12.0,5.1,93,88,74,30.27,30.05,2,0,2,0.00
2012-10-22,17.1,10.2,2.5,12.6,7.3,-0.2,91,88,80,30.19,30.03,1,0,1,0.00
2012-10-23,7.4,1.0,-4.6,3.8,-1.9,-7.9,89,87,84,30.32,30.19,0,0,0,0.00
2012-10-24,21.2,6.5,-3.1,16.3,3.5,-6.5,92,87,80,30.36,30.32,1,0,2,0.00
2012-10-25,20.3,12.8,7.7,14.5,9.6,5.1,90,87,77,30.34,30.22,1,0,1,0.00
2012-10-26,17.0,14.5,11.4,13.6,11.3,8.8,91,87,82,30.22,30.06,0,0,1,0.00
2012-10-27,26.6,20.3,16.2,21.8,17.5,13.8,92,89,82,30.06,29.81,0,0,0,0.00
2012-10-28,21.2,17.8,13.1,19.2,16.0,11.2,94,93,91,29.86,29.75,0,0,1,0.00
2012-10-29,17.5,15.1,12.3,15.1,13.0,10.1,93,92,89,29.75,29.64,0,0,0,0.00
2012-10-30,13.1,11.4,9.0,11.1,9.3,6.9,92,91,90,29.70,29.67,0,0,0,0.00
2012-11-10,21.9,20.1,17.3,19.9,18.2,15.4,94,92,91,29.39,29.37,0,0,1,0.00
2012-11-11,17.3,9.8,4.5,15.6,7.5,1.7,93,90,88,29.69,29.39,1,0,2,0.00
2012-11-12,4.4,0.6,-4.6,1.9,-2.4,-8.0,89,87,84,29.92,29.70,1,0,2,0.00
2012-11-13,2.0,-2.2,-6.2,-0.5,-5.2,-9.8,89,86,84,29.93,29.49,1,0,1,0.00
2012-11-14,4.1,3.6,2.9,1.6,1.0,0.4,89,89,88,29.47,29.42,0,0,0,0.00
2012-12-2,-26.8,-28.2,-28.7,-31.8,-33.2,-33.7,77,76,75,29.73,29.65,0,0,0,0.00
2012-12-3,-25.5,-29.4,-32.7,-30.1,-34.5,-38.1,78,76,74,29.81,29.73,0,0,0,0.00
2012-12-4,-24.8,-28.9,-33.3,-29.4,-33.9,-38.6,78,76,73,29.76,29.54,0,0,0,0.00
2012-12-5,-7.2,-18.7,-25.7,-10.8,-23.0,-30.8,92,80,76,29.61,29.55,0,0,0,0.00
2012-12-6,-7.1,-9.2,-10.3,-10.7,-13.0,-14.2,84,83,82,29.75,29.61,0,0,0,0.00
2012-12-7,-10.0,-10.9,-11.5,-13.7,-14.8,-15.5,83,82,82,29.82,29.78,0,0,0,0.00
2012-12-8,2.8,-7.8,-12.3,-0.2,-11.5,-16.5,88,84,81,29.80,29.19,0,0,0,0.00
2012-12-9,9.6,7.8,4.0,7.3,5.2,1.2,90,89,88,29.25,29.11,0,0,0,0.00
2012-12-10,9.8,7.5,3.9,7.5,5.0,1.1,90,89,88,29.46,29.27,0,0,0,0.00
2012-12-11,11.1,5.2,1.6,8.7,2.4,-1.4,90,88,87,29.63,29.22,0,0,0,0.00
2012-12-12,12.5,11.6,11.0,10.6,9.4,8.6,92,91,89,29.20,29.05,0,0,0,0.00
2012-12-16,-26.5,-28.7,-30.5,-30.3,-33.4,-35.4,92,77,76,29.65,29.52,0,0,0,0.00
2012-12-17,-26.2,-28.4,-29.6,-30.6,-33.1,-34.6,79,77,76,29.67,29.65,0,0,0,0.00
2012-12-18,-8.1,-11.1,-18.3,-11.4,-14.8,-22.8,85,83,79,29.57,29.21,0,0,1,0.00
2012-12-19,-17.4,-19.8,-23.7,-21.5,-24.0,-28.1,81,80,78,30.20,29.59,0,0,0,0.00
2012-12-20,-23.7,-27.5,-31.3,-28.3,-32.3,-36.5,78,77,75,30.38,30.21,0,0,0,0.00
2012-12-21,-27.0,-29.3,-30.1,-31.3,-34.1,-35.1,79,77,76,30.35,30.30,0,0,0,0.00
2012-12-22,-12.3,-14.2,-16.1,-16.2,-18.1,-20.2,84,82,81,29.88,29.81,0,0,0,0.00
2012-12-23,-5.5,-11.7,-14.7,-8.8,-15.4,-18.6,86,83,82,29.81,29.49,0,0,0,0.00
2012-12-24,9.1,-2.7,-11.8,6.5,-6.1,-15.8,89,85,82,29.50,29.45,0,0,0,0.00
2012-12-25,14.1,11.9,9.9,11.7,9.6,7.3,92,90,89,29.45,29.33,0,0,0,0.00
2012-12-26,9.1,6.6,4.7,6.5,4.2,1.9,90,89,88,29.40,29.18,0,0,0,0.00
2012-12-27,6.7,4.5,2.4,4.8,2.0,-0.3,99,89,86,29.20,29.16,0,0,0,0.00
2012-12-28,8.5,6.4,2.9,6.2,4.0,0.2,92,90,88,29.31,29.20,0,0,0,0.00
2012-12-29,30.0,23.6,7.4,28.7,22.0,5.1,96,94,90,29.26,29.02,2,0,2,0.00
2012-12-30,31.8,29.0,23.2,29.1,26.6,21.7,95,91,86,29.15,28.83,2,1,3,0.00
2012-12-31,35.8,29.5,26.0,30.8,26.2,21.8,90,87,82,29.47,28.97,3,2,3,0.00
2013-1-1,33.9,30.3,27.1,25.5,24.2,20.7,86,78,58,29.41,28.83,2,1,2,0.00